OEJN/JED METAR and TAF weather

Enter ICAO airport designator
Station Type Date Time Source
OEJN METAR 2021/10/20 07:00 UTC NOAA

OEJN 200700Z 32007KT CAVOK 32/24 Q1012 NOSIG


Station Type Date Time Source
OEJN Decoded METAR 2021/10/20 07:00 UTC NOAA

Jeddah King Abdul Aziz International Airport , Saudi Arabia (OEJN) 21-42N 039-11E 17M
Oct 20, 2021 - 03:00 AM EDT / 2021.10.20 0700 UTC
Wind: from the NW (320 degrees) at 8 MPH (7 KT):0
Visibility: greater than 7 mile(s):0
Temperature: 89 F (32 C)
Heat index: 98.4 F (36.9 C):1
Dew Point: 75 F (24 C)
Relative Humidity: 62%
Pressure (altimeter): 29.88 in. Hg (1012 hPa)
ob: OEJN 200700Z 32007KT CAVOK 32/24 Q1012 NOSIG
cycle: 7

Station Type Date Time Source
OEJN TAF 2021/10/20 06:33 UTC NOAA

TAF OEJN 200500Z 2006/2112 30012KT CAVOK
BECMG 2018/2020 02005KT 7000 NSC
TEMPO 2100/2105 5000 BR
BECMG 2106/2108 30012KT CAVOK

Example: see airport list